createdAt,value
2023-03-16T00:03:51.104Z,2.17
2023-03-16T00:07:54.752Z,2.30
2023-03-16T00:11:59.045Z,2.03
2023-03-16T00:16:07.862Z,2.40
2023-03-16T00:20:13.732Z,1.80
2023-03-16T00:24:25.172Z,2.33
2023-03-16T00:28:30.359Z,1.80
2023-03-16T00:32:37.710Z,2.40
2023-03-16T00:36:42.726Z,2.23
2023-03-16T00:40:46.559Z,3.13
2023-03-16T00:45:12.042Z,3.03
2023-03-16T00:49:17.121Z,2.50
2023-03-16T00:53:46.320Z,3.33
2023-03-16T00:57:50.022Z,2.67
2023-03-16T01:01:57.006Z,3.10
2023-03-16T01:06:06.356Z,2.70
2023-03-16T01:10:12.411Z,3.30
2023-03-16T01:14:29.056Z,2.97
2023-03-16T01:18:34.920Z,3.07
2023-03-16T01:22:42.426Z,3.27
2023-03-16T01:26:46.154Z,3.97
2023-03-16T01:30:50.243Z,3.00
2023-03-16T01:34:55.043Z,3.03
2023-03-16T01:39:23.387Z,3.30
2023-03-16T01:43:29.448Z,3.27
2023-03-16T01:47:38.377Z,3.10
2023-03-16T01:51:46.824Z,3.40
2023-03-16T01:56:02.270Z,3.40
2023-03-16T02:00:11.041Z,3.40
2023-03-16T02:04:46.102Z,3.13
2023-03-16T02:08:55.621Z,3.17
2023-03-16T02:13:26.577Z,2.93
2023-03-16T02:17:33.719Z,3.60
2023-03-16T02:21:55.116Z,4.30
2023-03-16T02:26:14.211Z,20.97
2023-03-16T02:30:23.221Z,6.73
2023-03-16T02:34:38.477Z,4.73
2023-03-16T02:38:55.417Z,5.23
2023-03-16T02:43:03.495Z,4.03
2023-03-16T02:47:30.141Z,5.67
2023-03-16T02:51:34.349Z,5.87
2023-03-16T02:55:46.627Z,4.83
2023-03-16T02:59:50.537Z,5.03
2023-03-16T03:03:55.966Z,5.03
2023-03-16T03:08:01.293Z,5.63
2023-03-16T03:12:06.033Z,6.37
2023-03-16T03:16:34.976Z,4.80
2023-03-16T03:20:40.865Z,5.83
2023-03-16T03:24:52.041Z,5.13
2023-03-16T03:29:17.531Z,6.93
2023-03-16T03:33:22.894Z,5.07
2023-03-16T03:37:31.164Z,6.37
2023-03-16T03:41:36.259Z,5.60
2023-03-16T03:46:06.190Z,6.47
2023-03-16T03:50:14.112Z,7.93
2023-03-16T03:54:53.046Z,6.80
2023-03-16T03:58:56.881Z,7.33
2023-03-16T04:03:20.932Z,6.80
2023-03-16T04:07:26.653Z,11.27
2023-03-16T04:11:37.434Z,10.80
2023-03-16T04:15:47.335Z,10.10
2023-03-16T04:20:02.634Z,17.13
2023-03-16T04:24:09.893Z,7.57
2023-03-16T04:28:19.308Z,9.20
2023-03-16T04:32:28.753Z,8.40
2023-03-16T04:36:46.915Z,9.37
2023-03-16T04:40:54.094Z,11.00
2023-03-16T04:45:09.190Z,8.83
2023-03-16T04:49:13.317Z,7.50
2023-03-16T04:53:21.876Z,7.53
2023-03-16T04:57:35.495Z,8.67
2023-03-16T05:01:44.077Z,7.70
2023-03-16T05:05:50.097Z,7.10
2023-03-16T05:09:58.423Z,7.23
2023-03-16T05:14:08.457Z,7.60
2023-03-16T05:18:33.875Z,7.30
2023-03-16T05:22:38.459Z,7.80
2023-03-16T05:27:03.878Z,7.17
2023-03-16T05:31:34.608Z,7.10
2023-03-16T05:35:56.126Z,7.07
2023-03-16T05:40:00.908Z,7.47
2023-03-16T05:44:06.396Z,7.53
2023-03-16T05:48:43.027Z,8.93
2023-03-16T05:53:02.989Z,7.47
2023-03-16T05:57:12.149Z,7.20
2023-03-16T06:01:23.000Z,8.00
2023-03-16T06:05:28.866Z,6.37
2023-03-16T06:09:35.133Z,7.10
2023-03-16T06:13:45.686Z,7.97
2023-03-16T06:17:52.247Z,7.23
2023-03-16T06:21:56.685Z,7.17
2023-03-16T06:26:05.726Z,6.93
2023-03-16T06:30:14.809Z,6.90
2023-03-16T06:35:17.384Z,6.27
2023-03-16T06:39:31.289Z,8.40
2023-03-16T06:43:36.596Z,6.13
2023-03-16T06:47:40.799Z,10.00
2023-03-16T06:51:44.603Z,8.10
2023-03-16T06:55:50.166Z,6.73
2023-03-16T06:59:55.670Z,6.33
2023-03-16T07:03:59.520Z,6.20
2023-03-16T07:08:12.422Z,5.53
2023-03-16T07:12:16.528Z,5.80
2023-03-16T07:16:24.669Z,5.27
2023-03-16T07:20:32.492Z,6.30
2023-03-16T07:24:44.436Z,5.00
2023-03-16T07:28:52.411Z,5.73
2023-03-16T07:33:00.039Z,5.83
2023-03-16T07:37:11.509Z,5.23
2023-03-16T07:41:18.911Z,6.13
2023-03-16T07:45:29.688Z,5.20
2023-03-16T07:49:37.840Z,5.40
2023-03-16T07:53:48.942Z,5.53
2023-03-16T07:58:01.969Z,4.10
2023-03-16T08:02:16.702Z,4.87
2023-03-16T08:29:14.599Z,3.37
2023-03-16T08:41:54.201Z,3.40
2023-03-16T08:46:15.936Z,3.60
2023-03-16T09:07:59.347Z,3.17
2023-03-16T09:12:58.953Z,2.10
2023-03-16T09:17:35.600Z,1.93
2023-03-16T09:22:02.614Z,2.00
2023-03-16T09:26:08.919Z,2.03
2023-03-16T09:30:59.547Z,1.73
2023-03-16T09:35:03.676Z,1.57
2023-03-16T09:39:07.942Z,2.20
2023-03-16T09:43:41.256Z,1.77
2023-03-16T09:47:49.843Z,2.00
2023-03-16T09:52:01.050Z,2.00
2023-03-16T09:56:09.882Z,2.03
2023-03-16T10:00:28.608Z,1.70
2023-03-16T10:04:50.649Z,1.10
2023-03-16T10:09:24.058Z,1.00
2023-03-16T10:14:04.600Z,1.37
2023-03-16T10:39:43.871Z,1.17
2023-03-16T10:43:52.760Z,1.30
2023-03-16T10:48:09.591Z,1.27
2023-03-16T10:52:20.237Z,0.90
2023-03-16T10:56:27.720Z,1.03
2023-03-16T11:00:39.025Z,1.10
2023-03-16T11:04:44.230Z,1.03
2023-03-16T11:09:04.041Z,0.90
2023-03-16T11:13:16.316Z,0.83
2023-03-16T11:17:30.599Z,1.20
2023-03-16T11:21:55.133Z,1.33
2023-03-16T11:26:02.628Z,0.73
2023-03-16T11:35:59.295Z,1.00
2023-03-16T11:40:15.899Z,0.90
2023-03-16T11:44:38.781Z,0.70
2023-03-16T11:48:47.345Z,0.83
2023-03-16T11:53:10.409Z,0.87
2023-03-16T11:57:33.079Z,0.70
2023-03-16T12:02:00.688Z,0.80
2023-03-16T12:06:23.412Z,0.87
2023-03-16T12:10:38.977Z,0.60
2023-03-16T12:15:04.027Z,0.60
2023-03-16T12:19:25.154Z,0.70
2023-03-16T12:23:38.247Z,0.80
2023-03-16T12:40:08.225Z,0.57
2023-03-16T12:53:58.494Z,0.70
2023-03-16T12:58:12.929Z,0.73
2023-03-16T13:02:34.991Z,2.60
2023-03-16T13:13:46.048Z,0.50
2023-03-16T13:18:25.786Z,0.70
2023-03-16T13:22:32.706Z,0.80
2023-03-16T13:27:41.982Z,1.00
2023-03-16T13:31:46.628Z,0.60
2023-03-16T13:36:21.695Z,0.60
2023-03-16T13:40:35.932Z,0.73
2023-03-16T13:44:42.197Z,1.23
2023-03-16T13:49:08.922Z,0.80
2023-03-16T13:53:27.163Z,0.80
2023-03-16T13:57:35.436Z,0.80
2023-03-16T14:01:40.641Z,0.57
2023-03-16T14:05:44.426Z,0.70
2023-03-16T14:09:52.766Z,0.80
2023-03-16T14:13:57.832Z,0.77
2023-03-16T14:18:34.018Z,1.00
2023-03-16T14:22:39.542Z,0.80
2023-03-16T14:26:48.290Z,0.80
2023-03-16T14:30:53.766Z,0.80
2023-03-16T14:35:13.277Z,0.67
2023-03-16T14:39:43.166Z,0.80
2023-03-16T14:43:56.640Z,0.90
2023-03-16T14:48:10.753Z,0.93
2023-03-16T14:52:34.836Z,0.60
2023-03-16T14:56:38.570Z,0.80
2023-03-16T15:00:53.188Z,0.67
2023-03-16T15:04:58.667Z,0.60
2023-03-16T15:10:15.030Z,0.70
2023-03-16T15:14:41.055Z,0.60
2023-03-16T15:18:50.058Z,1.03
2023-03-16T15:22:56.983Z,0.70
2023-03-16T15:27:05.102Z,0.80
2023-03-16T15:31:08.790Z,1.03
2023-03-16T15:35:39.148Z,0.90
2023-03-16T15:39:44.410Z,1.00
2023-03-16T15:43:47.987Z,0.90
2023-03-16T15:48:10.754Z,0.73
2023-03-16T15:52:33.161Z,9.73
2023-03-16T15:56:51.250Z,1.77
2023-03-16T16:01:01.900Z,0.80
2023-03-16T16:05:19.003Z,1.10
2023-03-16T16:09:25.693Z,0.77
2023-03-16T16:13:43.560Z,0.83
2023-03-16T16:18:09.966Z,0.80
2023-03-16T16:22:42.692Z,0.90
2023-03-16T16:26:55.507Z,0.93
2023-03-16T16:31:01.125Z,0.80
2023-03-16T16:40:47.905Z,0.70
2023-03-16T16:44:53.341Z,2.27
2023-03-16T16:49:12.777Z,2.30
2023-03-16T16:53:21.034Z,1.70
2023-03-16T16:57:28.842Z,1.13
2023-03-16T17:01:40.398Z,0.90
2023-03-16T17:05:46.994Z,0.90
2023-03-16T17:09:51.048Z,0.80
2023-03-16T17:14:21.498Z,1.00
2023-03-16T17:18:28.854Z,1.13
2023-03-16T17:22:32.328Z,0.77
2023-03-16T17:26:48.302Z,0.90
2023-03-16T17:31:03.396Z,1.00
2023-03-16T17:35:24.201Z,1.10
2023-03-16T17:39:32.008Z,0.80
2023-03-16T17:43:36.905Z,0.87
2023-03-16T17:47:57.903Z,1.40
2023-03-16T17:52:04.511Z,0.70
2023-03-16T17:56:19.247Z,0.83
2023-03-16T18:04:53.300Z,1.10
2023-03-16T18:10:02.188Z,1.33
2023-03-16T18:14:46.246Z,1.20
2023-03-16T18:18:57.083Z,1.60
2023-03-16T18:23:02.366Z,1.00
2023-03-16T18:27:12.596Z,0.80
2023-03-16T18:31:31.944Z,0.87
2023-03-16T18:35:44.069Z,0.80
2023-03-16T18:39:56.977Z,1.10
2023-03-16T18:44:03.748Z,1.17
2023-03-16T18:48:21.048Z,0.97
2023-03-16T18:52:26.525Z,1.10
2023-03-16T18:56:33.099Z,1.00
2023-03-16T19:00:37.553Z,0.80
2023-03-16T19:05:01.991Z,1.23
2023-03-16T19:09:13.964Z,0.90
2023-03-16T19:13:22.120Z,1.27
2023-03-16T19:26:27.022Z,1.20
2023-03-16T19:31:02.151Z,1.50
2023-03-16T19:35:18.772Z,1.30
2023-03-16T19:39:28.237Z,1.00
2023-03-16T19:48:27.156Z,1.10
2023-03-16T19:52:42.942Z,1.40
2023-03-16T19:56:48.744Z,1.87
2023-03-16T20:01:22.337Z,1.67
2023-03-16T20:05:32.584Z,1.50
2023-03-16T20:09:41.478Z,1.30
2023-03-16T20:14:21.011Z,1.40
2023-03-16T20:18:26.800Z,1.20
2023-03-16T20:23:00.531Z,1.23
2023-03-16T20:27:19.540Z,1.20
2023-03-16T20:31:37.895Z,1.30
2023-03-16T20:35:50.110Z,1.27
2023-03-16T20:39:55.296Z,1.70
2023-03-16T20:44:03.465Z,1.60
2023-03-16T20:48:26.191Z,1.17
2023-03-16T20:52:31.649Z,1.50
2023-03-16T20:56:51.656Z,1.60
2023-03-16T21:00:58.405Z,1.50
2023-03-16T21:05:05.222Z,1.60
2023-03-16T21:09:12.606Z,1.23
2023-03-16T21:13:21.855Z,1.27
2023-03-16T21:17:29.994Z,1.77
2023-03-16T21:21:34.707Z,1.93
2023-03-16T21:26:36.359Z,1.53
2023-03-16T21:30:55.389Z,1.93
2023-03-16T21:35:01.155Z,2.10
2023-03-16T21:39:20.583Z,1.97
2023-03-16T21:43:24.709Z,2.07
2023-03-16T21:47:31.630Z,2.03
2023-03-16T21:51:55.731Z,2.70
2023-03-16T21:56:00.333Z,2.70
2023-03-16T22:00:10.611Z,2.50
2023-03-16T22:04:18.542Z,2.57
2023-03-16T22:08:25.242Z,2.37
2023-03-16T22:12:42.936Z,2.47
2023-03-16T22:16:46.798Z,2.57
2023-03-16T22:20:52.027Z,2.70
2023-03-16T22:24:55.744Z,2.80
2023-03-16T22:29:51.306Z,2.70
2023-03-16T22:33:55.068Z,2.40
2023-03-16T22:38:03.646Z,2.60
2023-03-16T22:42:26.568Z,3.00
2023-03-16T22:46:31.156Z,2.47
2023-03-16T22:50:36.991Z,2.70
2023-03-16T22:55:07.465Z,2.30
2023-03-16T22:59:19.131Z,2.27
2023-03-16T23:03:24.380Z,2.67
2023-03-16T23:07:28.307Z,3.33
2023-03-16T23:11:47.507Z,2.70
2023-03-16T23:15:51.767Z,2.87
2023-03-16T23:19:55.493Z,3.43
2023-03-16T23:24:03.897Z,2.23
2023-03-16T23:28:13.096Z,3.17
2023-03-16T23:32:18.321Z,3.17
2023-03-16T23:36:24.679Z,2.27
2023-03-16T23:40:53.330Z,3.30
2023-03-16T23:45:11.397Z,2.90
2023-03-16T23:49:21.787Z,2.80
2023-03-16T23:53:25.732Z,3.43
2023-03-16T23:57:29.339Z,2.77
